»·PEaware :: N721KJ KPDX-KBOI

N721KJ :: KPDX-KBOI

FLIGHT INFORMATION

Flight Status: Arrived
Operator: Privately registered:
United States
More flights under this callsign
Pilot: Tanner C. (11250)
Aircraft: BOMBARDIER BD-100 CHALLENGER 300
(CL30)
More flights by this aircraft type
Origin: KPDX Portland Intl
United States
Destination: KBOI Boise Air Terminal/Gowen
United States
More flights between these airports :: More routes between these airports
Route: WHAMY4 IMB HOSTS PARMO3
File this flight plan on PilotEdge
Remarks: www.twitch.tv / Tannermannn
Altitude:
(Current/Filed)
35,000ft
Speed:
(Current/Filed)
500kts
Departed: 14-Dec-17 08:52 PM
Arrived: 14-Dec-17 09:40 PM
Distance/Time
Traveled:
298nm/0:48
Distance/Time
To Go:
Arrived

Flight Plot

Page will automatically refresh every two minutes.

Flight plan parsing failed; only flown route is shown


Map Options




Map Legend


Flown Route
Filed Route
Departure Airport
Arrival Airport
Navaid (VOR, NDB)
Fix

Horizontal Profiles

Position Reports

Time Latitude Longitude Heading Altitude Ground
Speed
14-Dec-17 20:43 45.588338 -122.585461 29 35ft 0kts
14-Dec-17 20:44 45.588338 -122.585461 29 35ft 0kts
14-Dec-17 20:45 45.588338 -122.585461 29 35ft 0kts
14-Dec-17 20:46 45.588338 -122.585461 29 35ft 0kts
14-Dec-17 20:47 45.588338 -122.585461 29 35ft 0kts
14-Dec-17 20:48 45.588338 -122.585461 29 35ft 0kts
14-Dec-17 20:49 45.588338 -122.585461 29 35ft 0kts
14-Dec-17 20:50 45.588338 -122.585461 29 35ft 0kts
14-Dec-17 20:51 45.588338 -122.585461 29 35ft 0kts
14-Dec-17 20:52 45.588338 -122.585461 29 35ft 0kts
14-Dec-17 20:53 45.588338 -122.585461 29 35ft 0kts
14-Dec-17 20:54 45.588338 -122.585461 29 35ft 0kts
14-Dec-17 20:55 45.589458 -122.586662 23 35ft 10kts
14-Dec-17 20:56 45.591698 -122.590865 299 35ft 21kts
14-Dec-17 20:57 45.594413 -122.597454 8 35ft 0kts
14-Dec-17 20:58 45.594458 -122.594738 119 35ft 42kts
14-Dec-17 20:59 45.581400 -122.542480 102 2809ft 182kts
14-Dec-17 21:00 45.566497 -122.462442 101 6955ft 246kts
14-Dec-17 21:01 45.547352 -122.358157 104 10815ft 307kts
14-Dec-17 21:02 45.484752 -122.273087 139 14340ft 351kts
14-Dec-17 21:03 45.409419 -122.175815 139 17677ft 388kts
14-Dec-17 21:04 45.328604 -122.072637 139 20927ft 409kts
14-Dec-17 21:05 45.250275 -121.953732 111 23761ft 431kts
14-Dec-17 21:06 45.208048 -121.796134 109 26186ft 449kts
14-Dec-17 21:07 45.164582 -121.628861 109 28377ft 465kts
14-Dec-17 21:08 45.119780 -121.456427 109 30236ft 480kts
14-Dec-17 21:09 45.075659 -121.287622 110 32904ft 468kts
14-Dec-17 21:10 45.030826 -121.117321 110 35008ft 468kts
14-Dec-17 21:11 44.984286 -120.941775 110 35518ft 502kts
14-Dec-17 21:12 44.935322 -120.758491 110 35512ft 507kts
14-Dec-17 21:13 44.887051 -120.579180 110 35506ft 507kts
14-Dec-17 21:14 44.837289 -120.395723 110 35369ft 507kts
14-Dec-17 21:15 44.788877 -120.218546 110 35342ft 506kts
14-Dec-17 21:16 44.738189 -120.034460 110 35344ft 506kts
14-Dec-17 21:17 44.687390 -119.851337 110 35319ft 506kts
14-Dec-17 21:18 44.638074 -119.676246 111 35320ft 507kts
14-Dec-17 21:19 44.585316 -119.495395 111 35321ft 506kts
14-Dec-17 21:20 44.533141 -119.317858 112 35316ft 506kts
14-Dec-17 21:21 44.480162 -119.138914 112 35317ft 506kts
14-Dec-17 21:22 44.426326 -118.958329 112 35319ft 506kts
14-Dec-17 21:23 44.372250 -118.778220 112 34943ft 507kts
14-Dec-17 21:24 44.318719 -118.601184 112 33692ft 504kts
14-Dec-17 21:25 44.264749 -118.423841 112 32430ft 500kts
14-Dec-17 21:26 44.216624 -118.266893 112 30976ft 500kts
14-Dec-17 21:27 44.164250 -118.097073 112 27815ft 485kts
14-Dec-17 21:28 44.112840 -117.931463 112 24566ft 461kts
14-Dec-17 21:29 44.063461 -117.773414 112 21294ft 437kts
14-Dec-17 21:30 44.016806 -117.624622 113 18044ft 418kts
14-Dec-17 21:31 43.972206 -117.484109 111 14855ft 399kts
14-Dec-17 21:32 43.930243 -117.351367 111 12683ft 369kts
14-Dec-17 21:33 43.892401 -117.232415 113 11004ft 359kts
14-Dec-17 21:34 43.853283 -117.110119 114 9218ft 346kts
14-Dec-17 21:35 43.815865 -116.994015 115 8030ft 300kts
14-Dec-17 21:36 43.784247 -116.896745 114 8020ft 285kts
14-Dec-17 21:37 43.751673 -116.796242 114 7786ft 290kts
14-Dec-17 21:38 43.720992 -116.700572 114 6557ft 257kts
14-Dec-17 21:39 43.694373 -116.617822 114 5645ft 219kts
14-Dec-17 21:40 43.669475 -116.540438 114 5013ft 223kts
14-Dec-17 21:41 43.644600 -116.463323 114 5040ft 201kts
14-Dec-17 21:42 43.623175 -116.398657 115 5007ft 176kts
14-Dec-17 21:43 43.604396 -116.343338 116 4417ft 160kts
14-Dec-17 21:44 43.586987 -116.291962 116 3585ft 137kts
14-Dec-17 21:45 43.571695 -116.247381 116 2905ft 123kts
14-Dec-17 21:46 43.564052 -116.224083 16 2847ft 13kts

Navigation Log

Ident Type
Flight plan parsing failed, navigation log unavailable